sensor_id;sensor_type;location;lat;lon;timestamp;temperature;humidity
8778;DHT22;4425;50.872;4.712;2022-09-20T00:00:32;13.40;99.90
8778;DHT22;4425;50.872;4.712;2022-09-20T00:03:01;13.40;99.90
8778;DHT22;4425;50.872;4.712;2022-09-20T00:05:44;13.40;99.90
8778;DHT22;4425;50.872;4.712;2022-09-20T00:08:39;13.40;99.90
8778;DHT22;4425;50.872;4.712;2022-09-20T00:11:35;13.30;99.90
8778;DHT22;4425;50.872;4.712;2022-09-20T00:14:22;13.30;99.90
8778;DHT22;4425;50.872;4.712;2022-09-20T00:17:18;13.20;99.90
8778;DHT22;4425;50.872;4.712;2022-09-20T00:20:11;13.10;99.90
8778;DHT22;4425;50.872;4.712;2022-09-20T00:22:57;12.90;99.90
8778;DHT22;4425;50.872;4.712;2022-09-20T00:25:57;12.80;99.90
8778;DHT22;4425;50.872;4.712;2022-09-20T00:28:36;12.80;99.90
8778;DHT22;4425;50.872;4.712;2022-09-20T00:35:01;12.60;99.90
8778;DHT22;4425;50.872;4.712;2022-09-20T00:37:45;12.50;99.90
8778;DHT22;4425;50.872;4.712;2022-09-20T00:40:18;12.50;99.90
8778;DHT22;4425;50.872;4.712;2022-09-20T00:42:53;12.50;99.90
8778;DHT22;4425;50.872;4.712;2022-09-20T00:45:29;12.50;99.90
8778;DHT22;4425;50.872;4.712;2022-09-20T00:48:12;12.50;99.90
8778;DHT22;4425;50.872;4.712;2022-09-20T00:51:13;12.40;99.90
8778;DHT22;4425;50.872;4.712;2022-09-20T00:53:50;12.30;99.90
8778;DHT22;4425;50.872;4.712;2022-09-20T00:57:13;12.20;99.90
8778;DHT22;4425;50.872;4.712;2022-09-20T00:59:50;12.10;99.90
8778;DHT22;4425;50.872;4.712;2022-09-20T01:02:34;12.10;99.90
8778;DHT22;4425;50.872;4.712;2022-09-20T01:08:49;12.10;99.90
8778;DHT22;4425;50.872;4.712;2022-09-20T01:11:33;12.20;99.90
8778;DHT22;4425;50.872;4.712;2022-09-20T01:14:06;12.20;99.90
8778;DHT22;4425;50.872;4.712;2022-09-20T01:16:41;12.20;99.90
8778;DHT22;4425;50.872;4.712;2022-09-20T01:19:17;12.20;99.90
8778;DHT22;4425;50.872;4.712;2022-09-20T01:21:51;12.30;99.90
8778;DHT22;4425;50.872;4.712;2022-09-20T01:24:30;12.30;99.90
8778;DHT22;4425;50.872;4.712;2022-09-20T01:30:22;12.20;99.90
8778;DHT22;4425;50.872;4.712;2022-09-20T01:33:10;12.20;99.90
8778;DHT22;4425;50.872;4.712;2022-09-20T01:35:46;12.10;99.90
8778;DHT22;4425;50.872;4.712;2022-09-20T01:38:28;12.10;99.90
8778;DHT22;4425;50.872;4.712;2022-09-20T01:41:25;12.10;99.90
8778;DHT22;4425;50.872;4.712;2022-09-20T01:44:14;12.10;99.90
8778;DHT22;4425;50.872;4.712;2022-09-20T01:47:10;12.20;99.90
8778;DHT22;4425;50.872;4.712;2022-09-20T01:50:00;12.20;99.90
8778;DHT22;4425;50.872;4.712;2022-09-20T01:56:27;12.30;99.90
8778;DHT22;4425;50.872;4.712;2022-09-20T02:15:14;12.40;99.90
8778;DHT22;4425;50.872;4.712;2022-09-20T02:17:51;12.40;99.90
8778;DHT22;4425;50.872;4.712;2022-09-20T02:20:43;12.40;99.90
8778;DHT22;4425;50.872;4.712;2022-09-20T02:23:34;12.40;99.90
8778;DHT22;4425;50.872;4.712;2022-09-20T02:26:28;12.40;99.90
8778;DHT22;4425;50.872;4.712;2022-09-20T02:29:20;12.40;99.90
8778;DHT22;4425;50.872;4.712;2022-09-20T02:35:18;12.40;99.90
8778;DHT22;4425;50.872;4.712;2022-09-20T02:45:25;12.40;99.90
8778;DHT22;4425;50.872;4.712;2022-09-20T02:51:23;12.40;99.90
8778;DHT22;4425;50.872;4.712;2022-09-20T02:54:25;12.30;99.90
8778;DHT22;4425;50.872;4.712;2022-09-20T02:57:28;12.40;99.90
8778;DHT22;4425;50.872;4.712;2022-09-20T03:10:26;12.30;99.90
8778;DHT22;4425;50.872;4.712;2022-09-20T03:13:16;12.30;99.90
8778;DHT22;4425;50.872;4.712;2022-09-20T03:15:56;12.40;99.90
8778;DHT22;4425;50.872;4.712;2022-09-20T03:18:42;12.40;99.90
8778;DHT22;4425;50.872;4.712;2022-09-20T03:21:38;12.30;99.90
8778;DHT22;4425;50.872;4.712;2022-09-20T03:24:24;12.40;99.90
8778;DHT22;4425;50.872;4.712;2022-09-20T03:27:04;12.30;99.90
8778;DHT22;4425;50.872;4.712;2022-09-20T03:29:46;12.20;99.90
8778;DHT22;4425;50.872;4.712;2022-09-20T03:32:32;12.10;99.90
8778;DHT22;4425;50.872;4.712;2022-09-20T03:35:21;12.10;99.90
8778;DHT22;4425;50.872;4.712;2022-09-20T03:38:14;12.00;99.90
8778;DHT22;4425;50.872;4.712;2022-09-20T03:41:16;12.10;99.90
8778;DHT22;4425;50.872;4.712;2022-09-20T03:47:36;12.20;99.90
8778;DHT22;4425;50.872;4.712;2022-09-20T03:50:30;12.30;99.90
8778;DHT22;4425;50.872;4.712;2022-09-20T03:56:50;12.40;99.90
8778;DHT22;4425;50.872;4.712;2022-09-20T03:59:40;12.40;99.90
8778;DHT22;4425;50.872;4.712;2022-09-20T04:02:37;12.50;99.90
8778;DHT22;4425;50.872;4.712;2022-09-20T04:05:26;12.50;99.90
8778;DHT22;4425;50.872;4.712;2022-09-20T04:08:10;12.40;99.90
8778;DHT22;4425;50.872;4.712;2022-09-20T04:11:07;12.30;99.90
8778;DHT22;4425;50.872;4.712;2022-09-20T04:13:55;12.40;99.90
8778;DHT22;4425;50.872;4.712;2022-09-20T04:16:43;12.40;99.90
8778;DHT22;4425;50.872;4.712;2022-09-20T04:19:24;12.40;99.90
8778;DHT22;4425;50.872;4.712;2022-09-20T04:21:56;12.40;99.90
8778;DHT22;4425;50.872;4.712;2022-09-20T04:24:38;12.40;99.90
8778;DHT22;4425;50.872;4.712;2022-09-20T04:27:16;12.40;99.90
8778;DHT22;4425;50.872;4.712;2022-09-20T04:29:56;12.40;99.90
8778;DHT22;4425;50.872;4.712;2022-09-20T04:32:31;12.40;99.90
8778;DHT22;4425;50.872;4.712;2022-09-20T04:35:12;12.30;99.90
8778;DHT22;4425;50.872;4.712;2022-09-20T04:45:08;12.30;99.90
8778;DHT22;4425;50.872;4.712;2022-09-20T04:48:14;12.30;99.90
8778;DHT22;4425;50.872;4.712;2022-09-20T04:51:25;12.40;99.90
8778;DHT22;4425;50.872;4.712;2022-09-20T04:57:35;12.10;99.90
8778;DHT22;4425;50.872;4.712;2022-09-20T05:00:19;12.10;99.90
8778;DHT22;4425;50.872;4.712;2022-09-20T05:03:03;12.10;99.90
8778;DHT22;4425;50.872;4.712;2022-09-20T05:06:21;12.10;99.90
8778;DHT22;4425;50.872;4.712;2022-09-20T05:09:17;12.20;99.90
8778;DHT22;4425;50.872;4.712;2022-09-20T05:30:31;12.50;99.90
8778;DHT22;4425;50.872;4.712;2022-09-20T05:33:21;12.40;99.90
8778;DHT22;4425;50.872;4.712;2022-09-20T05:36:02;12.40;99.90
8778;DHT22;4425;50.872;4.712;2022-09-20T05:38:42;12.30;99.90
8778;DHT22;4425;50.872;4.712;2022-09-20T05:41:35;12.10;99.90
8778;DHT22;4425;50.872;4.712;2022-09-20T05:44:28;12.00;99.90
8778;DHT22;4425;50.872;4.712;2022-09-20T05:50:36;12.00;99.90
8778;DHT22;4425;50.872;4.712;2022-09-20T05:56:17;12.00;99.90
8778;DHT22;4425;50.872;4.712;2022-09-20T05:59:04;12.00;99.90
8778;DHT22;4425;50.872;4.712;2022-09-20T06:01:39;12.00;99.90
8778;DHT22;4425;50.872;4.712;2022-09-20T06:04:25;12.00;99.90
8778;DHT22;4425;50.872;4.712;2022-09-20T06:07:36;12.10;99.90
8778;DHT22;4425;50.872;4.712;2022-09-20T06:14:11;12.20;99.90
8778;DHT22;4425;50.872;4.712;2022-09-20T06:17:03;12.20;99.90
8778;DHT22;4425;50.872;4.712;2022-09-20T06:27:54;12.30;99.90
8778;DHT22;4425;50.872;4.712;2022-09-20T06:30:29;12.20;99.90
8778;DHT22;4425;50.872;4.712;2022-09-20T06:33:30;12.30;99.90
8778;DHT22;4425;50.872;4.712;2022-09-20T06:36:17;12.30;99.90
8778;DHT22;4425;50.872;4.712;2022-09-20T06:39:10;12.50;99.90
8778;DHT22;4425;50.872;4.712;2022-09-20T06:42:00;12.60;99.90
8778;DHT22;4425;50.872;4.712;2022-09-20T06:47:58;12.80;99.90
8778;DHT22;4425;50.872;4.712;2022-09-20T06:51:12;12.90;99.90
8778;DHT22;4425;50.872;4.712;2022-09-20T06:53:48;12.90;99.90
8778;DHT22;4425;50.872;4.712;2022-09-20T06:56:19;12.90;99.90
8778;DHT22;4425;50.872;4.712;2022-09-20T06:59:01;12.90;99.90
8778;DHT22;4425;50.872;4.712;2022-09-20T07:01:34;12.90;99.90
8778;DHT22;4425;50.872;4.712;2022-09-20T07:04:09;13.00;99.90
8778;DHT22;4425;50.872;4.712;2022-09-20T07:06:49;13.30;99.90
8778;DHT22;4425;50.872;4.712;2022-09-20T07:09:23;14.30;99.90
8778;DHT22;4425;50.872;4.712;2022-09-20T07:11:51;16.30;99.90
8778;DHT22;4425;50.872;4.712;2022-09-20T07:14:19;18.10;99.90
8778;DHT22;4425;50.872;4.712;2022-09-20T07:16:48;19.40;99.90
8778;DHT22;4425;50.872;4.712;2022-09-20T07:19:58;20.50;99.90
8778;DHT22;4425;50.872;4.712;2022-09-20T07:22:51;21.20;99.90
8778;DHT22;4425;50.872;4.712;2022-09-20T07:25:22;21.70;99.90
8778;DHT22;4425;50.872;4.712;2022-09-20T07:27:53;22.10;99.90
8778;DHT22;4425;50.872;4.712;2022-09-20T07:30:23;22.80;99.90
8778;DHT22;4425;50.872;4.712;2022-09-20T07:32:55;22.70;99.90
8778;DHT22;4425;50.872;4.712;2022-09-20T07:35:29;21.30;99.90
8778;DHT22;4425;50.872;4.712;2022-09-20T07:38:02;19.60;99.90
8778;DHT22;4425;50.872;4.712;2022-09-20T07:40:29;18.20;99.90
8778;DHT22;4425;50.872;4.712;2022-09-20T07:42:59;17.20;99.90
8778;DHT22;4425;50.872;4.712;2022-09-20T07:45:35;16.50;99.90
8778;DHT22;4425;50.872;4.712;2022-09-20T07:48:10;15.80;99.90
8778;DHT22;4425;50.872;4.712;2022-09-20T07:50:55;15.30;99.90
8778;DHT22;4425;50.872;4.712;2022-09-20T07:53:25;15.00;99.90
8778;DHT22;4425;50.872;4.712;2022-09-20T07:56:02;14.80;99.90
8778;DHT22;4425;50.872;4.712;2022-09-20T07:58:43;14.70;99.90
8778;DHT22;4425;50.872;4.712;2022-09-20T08:01:17;14.70;99.90
8778;DHT22;4425;50.872;4.712;2022-09-20T08:03:48;14.50;99.90
8778;DHT22;4425;50.872;4.712;2022-09-20T08:06:23;14.40;99.90
8778;DHT22;4425;50.872;4.712;2022-09-20T08:08:51;14.30;99.90
8778;DHT22;4425;50.872;4.712;2022-09-20T08:11:21;14.30;99.90
8778;DHT22;4425;50.872;4.712;2022-09-20T08:13:52;14.30;99.90
8778;DHT22;4425;50.872;4.712;2022-09-20T08:16:21;14.40;99.90
8778;DHT22;4425;50.872;4.712;2022-09-20T08:18:52;14.70;99.90
8778;DHT22;4425;50.872;4.712;2022-09-20T08:21:24;14.90;99.90
8778;DHT22;4425;50.872;4.712;2022-09-20T08:23:52;14.90;99.90
8778;DHT22;4425;50.872;4.712;2022-09-20T08:26:22;15.00;99.90
8778;DHT22;4425;50.872;4.712;2022-09-20T08:28:52;15.10;99.90
8778;DHT22;4425;50.872;4.712;2022-09-20T08:31:21;15.10;99.90
8778;DHT22;4425;50.872;4.712;2022-09-20T08:33:51;15.30;99.90
8778;DHT22;4425;50.872;4.712;2022-09-20T08:36:23;15.60;99.90
8778;DHT22;4425;50.872;4.712;2022-09-20T08:38:51;15.80;99.90
8778;DHT22;4425;50.872;4.712;2022-09-20T08:41:20;15.80;99.90
8778;DHT22;4425;50.872;4.712;2022-09-20T08:43:54;15.70;99.90
8778;DHT22;4425;50.872;4.712;2022-09-20T08:46:24;15.70;99.90
8778;DHT22;4425;50.872;4.712;2022-09-20T08:48:57;15.70;99.90
8778;DHT22;4425;50.872;4.712;2022-09-20T08:51:32;15.70;99.90
8778;DHT22;4425;50.872;4.712;2022-09-20T08:54:01;15.60;99.90
8778;DHT22;4425;50.872;4.712;2022-09-20T08:56:33;15.80;99.90
8778;DHT22;4425;50.872;4.712;2022-09-20T09:02:58;15.60;99.90
8778;DHT22;4425;50.872;4.712;2022-09-20T09:05:32;15.70;99.90
8778;DHT22;4425;50.872;4.712;2022-09-20T09:08:09;15.60;99.90
8778;DHT22;4425;50.872;4.712;2022-09-20T09:10:50;15.40;99.90
8778;DHT22;4425;50.872;4.712;2022-09-20T09:13:30;15.40;99.90
8778;DHT22;4425;50.872;4.712;2022-09-20T09:16:18;15.40;99.90
8778;DHT22;4425;50.872;4.712;2022-09-20T09:22:04;15.60;99.90
8778;DHT22;4425;50.872;4.712;2022-09-20T09:24:34;15.80;99.90
8778;DHT22;4425;50.872;4.712;2022-09-20T09:27:13;16.00;99.90
8778;DHT22;4425;50.872;4.712;2022-09-20T09:29:49;16.00;99.90
8778;DHT22;4425;50.872;4.712;2022-09-20T09:32:21;16.20;99.90
8778;DHT22;4425;50.872;4.712;2022-09-20T09:35:22;16.20;99.90
8778;DHT22;4425;50.872;4.712;2022-09-20T09:47:28;17.60;99.90
8778;DHT22;4425;50.872;4.712;2022-09-20T09:53:24;17.90;99.90
8778;DHT22;4425;50.872;4.712;2022-09-20T09:56:19;18.10;99.90
8778;DHT22;4425;50.872;4.712;2022-09-20T10:02:00;18.10;99.90
8778;DHT22;4425;50.872;4.712;2022-09-20T10:04:35;18.30;99.90
8778;DHT22;4425;50.872;4.712;2022-09-20T10:07:09;18.40;99.90
8778;DHT22;4425;50.872;4.712;2022-09-20T10:09:54;18.50;99.90
8778;DHT22;4425;50.872;4.712;2022-09-20T10:13:08;18.40;99.90
8778;DHT22;4425;50.872;4.712;2022-09-20T10:15:54;17.90;99.90
8778;DHT22;4425;50.872;4.712;2022-09-20T10:18:34;17.60;99.90
8778;DHT22;4425;50.872;4.712;2022-09-20T10:21:28;17.70;99.90
8778;DHT22;4425;50.872;4.712;2022-09-20T10:24:22;17.90;99.90
8778;DHT22;4425;50.872;4.712;2022-09-20T10:27:18;18.10;99.90
8778;DHT22;4425;50.872;4.712;2022-09-20T10:30:09;18.20;99.90
8778;DHT22;4425;50.872;4.712;2022-09-20T10:33:05;18.30;99.90
8778;DHT22;4425;50.872;4.712;2022-09-20T10:36:13;18.30;99.90
8778;DHT22;4425;50.872;4.712;2022-09-20T10:38:59;18.00;99.90
8778;DHT22;4425;50.872;4.712;2022-09-20T10:41:49;18.20;99.90
8778;DHT22;4425;50.872;4.712;2022-09-20T10:44:59;18.20;99.90
8778;DHT22;4425;50.872;4.712;2022-09-20T10:47:33;18.20;99.90
8778;DHT22;4425;50.872;4.712;2022-09-20T10:50:16;17.90;99.90
8778;DHT22;4425;50.872;4.712;2022-09-20T10:53:05;17.80;99.90
8778;DHT22;4425;50.872;4.712;2022-09-20T10:55:50;17.90;99.90
8778;DHT22;4425;50.872;4.712;2022-09-20T10:58:59;17.90;99.90
8778;DHT22;4425;50.872;4.712;2022-09-20T11:01:57;17.90;99.90
8778;DHT22;4425;50.872;4.712;2022-09-20T11:04:48;17.90;99.90
8778;DHT22;4425;50.872;4.712;2022-09-20T11:07:27;17.90;99.90
8778;DHT22;4425;50.872;4.712;2022-09-20T11:10:19;17.90;99.90
8778;DHT22;4425;50.872;4.712;2022-09-20T11:13:09;18.00;99.90
8778;DHT22;4425;50.872;4.712;2022-09-20T11:15:44;17.90;99.90
8778;DHT22;4425;50.872;4.712;2022-09-20T11:18:17;17.90;99.90
8778;DHT22;4425;50.872;4.712;2022-09-20T11:20:55;17.90;99.90
8778;DHT22;4425;50.872;4.712;2022-09-20T11:23:46;18.00;99.90
8778;DHT22;4425;50.872;4.712;2022-09-20T11:26:35;17.90;99.90
8778;DHT22;4425;50.872;4.712;2022-09-20T11:29:38;18.20;99.90
8778;DHT22;4425;50.872;4.712;2022-09-20T11:35:51;18.10;99.90
8778;DHT22;4425;50.872;4.712;2022-09-20T11:38:37;18.10;99.90
8778;DHT22;4425;50.872;4.712;2022-09-20T11:41:13;18.30;99.90
8778;DHT22;4425;50.872;4.712;2022-09-20T11:43:46;18.40;99.90
8778;DHT22;4425;50.872;4.712;2022-09-20T11:46:25;18.40;99.90
8778;DHT22;4425;50.872;4.712;2022-09-20T11:49:01;18.60;99.90
8778;DHT22;4425;50.872;4.712;2022-09-20T11:55:01;18.90;99.90
8778;DHT22;4425;50.872;4.712;2022-09-20T11:57:36;18.80;99.90
8778;DHT22;4425;50.872;4.712;2022-09-20T12:00:06;18.80;99.90
8778;DHT22;4425;50.872;4.712;2022-09-20T12:02:49;18.90;99.90
8778;DHT22;4425;50.872;4.712;2022-09-20T12:05:31;19.00;99.90
8778;DHT22;4425;50.872;4.712;2022-09-20T12:08:05;19.00;99.90
8778;DHT22;4425;50.872;4.712;2022-09-20T12:10:38;19.20;99.90
8778;DHT22;4425;50.872;4.712;2022-09-20T12:13:23;19.40;99.90
8778;DHT22;4425;50.872;4.712;2022-09-20T12:16:01;19.30;99.90
8778;DHT22;4425;50.872;4.712;2022-09-20T12:19:06;19.30;99.90
8778;DHT22;4425;50.872;4.712;2022-09-20T12:24:39;19.20;99.90
8778;DHT22;4425;50.872;4.712;2022-09-20T12:27:22;19.10;99.90
8778;DHT22;4425;50.872;4.712;2022-09-20T12:30:17;19.20;99.90
8778;DHT22;4425;50.872;4.712;2022-09-20T12:32:50;19.20;99.90
8778;DHT22;4425;50.872;4.712;2022-09-20T12:39:05;18.90;99.90
8778;DHT22;4425;50.872;4.712;2022-09-20T12:41:46;18.90;99.90
8778;DHT22;4425;50.872;4.712;2022-09-20T12:44:25;18.80;99.90
8778;DHT22;4425;50.872;4.712;2022-09-20T12:47:00;18.70;99.90
8778;DHT22;4425;50.872;4.712;2022-09-20T12:49:41;18.50;99.90
8778;DHT22;4425;50.872;4.712;2022-09-20T12:52:35;18.30;99.90
8778;DHT22;4425;50.872;4.712;2022-09-20T12:55:53;17.90;99.90
8778;DHT22;4425;50.872;4.712;2022-09-20T12:58:47;17.60;99.90
8778;DHT22;4425;50.872;4.712;2022-09-20T13:01:29;17.50;99.90
8778;DHT22;4425;50.872;4.712;2022-09-20T13:11:09;17.70;99.90
8778;DHT22;4425;50.872;4.712;2022-09-20T13:13:41;18.10;99.90
8778;DHT22;4425;50.872;4.712;2022-09-20T13:16:20;18.20;99.90
8778;DHT22;4425;50.872;4.712;2022-09-20T13:18:57;18.40;99.90
8778;DHT22;4425;50.872;4.712;2022-09-20T13:24:38;18.80;99.90
8778;DHT22;4425;50.872;4.712;2022-09-20T13:27:46;18.70;99.90
8778;DHT22;4425;50.872;4.712;2022-09-20T13:37:50;18.30;99.90
8778;DHT22;4425;50.872;4.712;2022-09-20T13:40:20;18.30;99.90
8778;DHT22;4425;50.872;4.712;2022-09-20T13:42:54;18.30;99.90
8778;DHT22;4425;50.872;4.712;2022-09-20T13:45:25;18.10;99.90
8778;DHT22;4425;50.872;4.712;2022-09-20T13:47:58;18.10;99.90
8778;DHT22;4425;50.872;4.712;2022-09-20T13:50:36;18.10;99.90
8778;DHT22;4425;50.872;4.712;2022-09-20T13:53:17;18.20;99.90
8778;DHT22;4425;50.872;4.712;2022-09-20T13:55:46;18.30;99.90
8778;DHT22;4425;50.872;4.712;2022-09-20T13:58:20;18.50;99.90
8778;DHT22;4425;50.872;4.712;2022-09-20T14:00:52;18.60;99.90
8778;DHT22;4425;50.872;4.712;2022-09-20T14:03:21;18.60;99.90
8778;DHT22;4425;50.872;4.712;2022-09-20T14:05:53;18.60;99.90
8778;DHT22;4425;50.872;4.712;2022-09-20T14:08:23;18.50;99.90
8778;DHT22;4425;50.872;4.712;2022-09-20T14:11:05;18.50;99.90
8778;DHT22;4425;50.872;4.712;2022-09-20T14:13:41;18.50;99.90
8778;DHT22;4425;50.872;4.712;2022-09-20T14:16:12;18.50;99.90
8778;DHT22;4425;50.872;4.712;2022-09-20T14:18:42;18.40;99.90
8778;DHT22;4425;50.872;4.712;2022-09-20T14:21:27;18.20;99.90
8778;DHT22;4425;50.872;4.712;2022-09-20T14:24:03;17.90;99.90
8778;DHT22;4425;50.872;4.712;2022-09-20T14:26:33;17.80;99.90
8778;DHT22;4425;50.872;4.712;2022-09-20T14:29:35;17.60;99.90
8778;DHT22;4425;50.872;4.712;2022-09-20T14:32:09;17.60;99.90
8778;DHT22;4425;50.872;4.712;2022-09-20T14:34:45;17.60;99.90
8778;DHT22;4425;50.872;4.712;2022-09-20T14:37:22;17.70;99.90
8778;DHT22;4425;50.872;4.712;2022-09-20T14:39:58;17.90;99.90
8778;DHT22;4425;50.872;4.712;2022-09-20T14:42:29;18.10;99.90
8778;DHT22;4425;50.872;4.712;2022-09-20T14:45:20;18.30;99.90
8778;DHT22;4425;50.872;4.712;2022-09-20T14:48:00;18.60;99.90
8778;DHT22;4425;50.872;4.712;2022-09-20T14:50:37;18.70;99.90
8778;DHT22;4425;50.872;4.712;2022-09-20T14:53:23;18.40;99.90
8778;DHT22;4425;50.872;4.712;2022-09-20T14:55:58;18.30;99.90
8778;DHT22;4425;50.872;4.712;2022-09-20T14:59:20;18.30;99.90
8778;DHT22;4425;50.872;4.712;2022-09-20T15:02:13;18.20;99.90
8778;DHT22;4425;50.872;4.712;2022-09-20T15:04:52;18.00;99.90
8778;DHT22;4425;50.872;4.712;2022-09-20T15:07:25;17.80;99.90
8778;DHT22;4425;50.872;4.712;2022-09-20T15:09:53;17.60;99.90
8778;DHT22;4425;50.872;4.712;2022-09-20T15:12:24;17.60;99.90
8778;DHT22;4425;50.872;4.712;2022-09-20T15:14:57;17.70;99.90
8778;DHT22;4425;50.872;4.712;2022-09-20T15:17:49;17.70;99.90
8778;DHT22;4425;50.872;4.712;2022-09-20T15:20:26;17.60;99.90
8778;DHT22;4425;50.872;4.712;2022-09-20T15:23:08;17.60;99.90
8778;DHT22;4425;50.872;4.712;2022-09-20T15:25:38;17.40;99.90
8778;DHT22;4425;50.872;4.712;2022-09-20T15:28:12;17.40;99.90
8778;DHT22;4425;50.872;4.712;2022-09-20T15:30:42;17.20;99.90
8778;DHT22;4425;50.872;4.712;2022-09-20T15:33:23;17.30;99.90
8778;DHT22;4425;50.872;4.712;2022-09-20T15:35:52;17.30;99.90
8778;DHT22;4425;50.872;4.712;2022-09-20T15:38:27;17.30;99.90
8778;DHT22;4425;50.872;4.712;2022-09-20T15:40:55;17.30;99.90
8778;DHT22;4425;50.872;4.712;2022-09-20T15:43:44;17.40;99.90
8778;DHT22;4425;50.872;4.712;2022-09-20T15:46:22;17.40;99.90
8778;DHT22;4425;50.872;4.712;2022-09-20T15:52:11;17.60;99.90
8778;DHT22;4425;50.872;4.712;2022-09-20T15:54:44;17.50;99.90
8778;DHT22;4425;50.872;4.712;2022-09-20T15:57:13;17.50;99.90
8778;DHT22;4425;50.872;4.712;2022-09-20T15:59:42;17.40;99.90
8778;DHT22;4425;50.872;4.712;2022-09-20T16:02:10;17.30;99.90
8778;DHT22;4425;50.872;4.712;2022-09-20T16:04:38;17.30;99.90
8778;DHT22;4425;50.872;4.712;2022-09-20T16:07:25;17.20;99.90
8778;DHT22;4425;50.872;4.712;2022-09-20T16:09:55;17.20;99.90
8778;DHT22;4425;50.872;4.712;2022-09-20T16:12:23;17.20;99.90
8778;DHT22;4425;50.872;4.712;2022-09-20T16:14:51;17.20;99.90
8778;DHT22;4425;50.872;4.712;2022-09-20T16:17:18;17.20;99.90
8778;DHT22;4425;50.872;4.712;2022-09-20T16:20:07;17.10;99.90
8778;DHT22;4425;50.872;4.712;2022-09-20T16:22:35;17.00;99.90
8778;DHT22;4425;50.872;4.712;2022-09-20T16:25:05;16.90;99.90
8778;DHT22;4425;50.872;4.712;2022-09-20T16:27:33;16.80;99.90
8778;DHT22;4425;50.872;4.712;2022-09-20T16:30:02;16.70;99.90
8778;DHT22;4425;50.872;4.712;2022-09-20T16:32:30;16.70;99.90
8778;DHT22;4425;50.872;4.712;2022-09-20T16:35:00;16.60;99.90
8778;DHT22;4425;50.872;4.712;2022-09-20T16:37:31;16.60;99.90
8778;DHT22;4425;50.872;4.712;2022-09-20T16:40:04;16.60;99.90
8778;DHT22;4425;50.872;4.712;2022-09-20T16:42:34;16.70;99.90
8778;DHT22;4425;50.872;4.712;2022-09-20T16:45:04;16.70;99.90
8778;DHT22;4425;50.872;4.712;2022-09-20T16:47:35;16.70;99.90
8778;DHT22;4425;50.872;4.712;2022-09-20T16:50:06;16.70;99.90
8778;DHT22;4425;50.872;4.712;2022-09-20T16:52:40;16.70;99.90
8778;DHT22;4425;50.872;4.712;2022-09-20T16:55:16;16.70;99.90
8778;DHT22;4425;50.872;4.712;2022-09-20T16:57:58;16.70;99.90
8778;DHT22;4425;50.872;4.712;2022-09-20T17:00:43;16.60;99.90
8778;DHT22;4425;50.872;4.712;2022-09-20T17:03:19;16.60;99.90
8778;DHT22;4425;50.872;4.712;2022-09-20T17:05:51;16.50;99.90
8778;DHT22;4425;50.872;4.712;2022-09-20T17:08:19;16.30;99.90
8778;DHT22;4425;50.872;4.712;2022-09-20T17:10:47;16.20;99.90
8778;DHT22;4425;50.872;4.712;2022-09-20T17:13:16;16.20;99.90
8778;DHT22;4425;50.872;4.712;2022-09-20T17:19:24;16.00;99.90
8778;DHT22;4425;50.872;4.712;2022-09-20T17:21:52;15.90;99.90
8778;DHT22;4425;50.872;4.712;2022-09-20T17:24:20;15.90;99.90
8778;DHT22;4425;50.872;4.712;2022-09-20T17:26:52;15.90;99.90
8778;DHT22;4425;50.872;4.712;2022-09-20T17:29:19;15.80;99.90
8778;DHT22;4425;50.872;4.712;2022-09-20T17:31:49;15.70;99.90
8778;DHT22;4425;50.872;4.712;2022-09-20T17:34:25;15.70;99.90
8778;DHT22;4425;50.872;4.712;2022-09-20T17:37:00;15.70;99.90
8778;DHT22;4425;50.872;4.712;2022-09-20T17:39:31;15.70;99.90
8778;DHT22;4425;50.872;4.712;2022-09-20T17:42:04;15.70;99.90
8778;DHT22;4425;50.872;4.712;2022-09-20T17:44:33;15.70;99.90
8778;DHT22;4425;50.872;4.712;2022-09-20T17:47:18;15.70;99.90
8778;DHT22;4425;50.872;4.712;2022-09-20T17:49:47;15.70;99.90
8778;DHT22;4425;50.872;4.712;2022-09-20T17:52:15;15.80;99.90
8778;DHT22;4425;50.872;4.712;2022-09-20T17:54:45;15.80;99.90
8778;DHT22;4425;50.872;4.712;2022-09-20T17:57:19;15.80;99.90
8778;DHT22;4425;50.872;4.712;2022-09-20T18:00:02;15.70;99.90
8778;DHT22;4425;50.872;4.712;2022-09-20T18:02:31;15.70;99.90
8778;DHT22;4425;50.872;4.712;2022-09-20T18:04:58;15.70;99.90
8778;DHT22;4425;50.872;4.712;2022-09-20T18:07:25;15.70;99.90
8778;DHT22;4425;50.872;4.712;2022-09-20T18:09:53;15.70;99.90
8778;DHT22;4425;50.872;4.712;2022-09-20T18:12:24;15.70;99.90
8778;DHT22;4425;50.872;4.712;2022-09-20T18:14:51;15.60;99.90
8778;DHT22;4425;50.872;4.712;2022-09-20T18:17:21;15.60;99.90
8778;DHT22;4425;50.872;4.712;2022-09-20T18:19:48;15.60;99.90
8778;DHT22;4425;50.872;4.712;2022-09-20T18:22:15;15.60;99.90
8778;DHT22;4425;50.872;4.712;2022-09-20T18:24:42;15.60;99.90
8778;DHT22;4425;50.872;4.712;2022-09-20T18:27:09;15.70;99.90
8778;DHT22;4425;50.872;4.712;2022-09-20T18:29:39;15.70;99.90
8778;DHT22;4425;50.872;4.712;2022-09-20T18:32:07;15.70;99.90
8778;DHT22;4425;50.872;4.712;2022-09-20T18:34:36;15.60;99.90
8778;DHT22;4425;50.872;4.712;2022-09-20T18:37:03;15.60;99.90
8778;DHT22;4425;50.872;4.712;2022-09-20T18:39:36;15.50;99.90
8778;DHT22;4425;50.872;4.712;2022-09-20T18:42:04;15.60;99.90
8778;DHT22;4425;50.872;4.712;2022-09-20T18:44:32;15.60;99.90
8778;DHT22;4425;50.872;4.712;2022-09-20T18:47:02;15.50;99.90
8778;DHT22;4425;50.872;4.712;2022-09-20T18:49:30;15.50;99.90
8778;DHT22;4425;50.872;4.712;2022-09-20T18:51:58;15.50;99.90
8778;DHT22;4425;50.872;4.712;2022-09-20T18:54:25;15.40;99.90
8778;DHT22;4425;50.872;4.712;2022-09-20T18:56:55;15.30;99.90
8778;DHT22;4425;50.872;4.712;2022-09-20T18:59:24;15.30;99.90
8778;DHT22;4425;50.872;4.712;2022-09-20T19:02:22;15.30;99.90
8778;DHT22;4425;50.872;4.712;2022-09-20T19:05:05;15.20;99.90
8778;DHT22;4425;50.872;4.712;2022-09-20T19:07:41;15.10;99.90
8778;DHT22;4425;50.872;4.712;2022-09-20T19:10:18;15.00;99.90
8778;DHT22;4425;50.872;4.712;2022-09-20T19:12:56;14.90;99.90
8778;DHT22;4425;50.872;4.712;2022-09-20T19:15:44;14.80;99.90
8778;DHT22;4425;50.872;4.712;2022-09-20T19:18:43;14.70;99.90
8778;DHT22;4425;50.872;4.712;2022-09-20T19:21:18;14.50;99.90
8778;DHT22;4425;50.872;4.712;2022-09-20T19:23:58;14.50;99.90
8778;DHT22;4425;50.872;4.712;2022-09-20T19:26:29;14.40;99.90
8778;DHT22;4425;50.872;4.712;2022-09-20T19:28:59;14.40;99.90
8778;DHT22;4425;50.872;4.712;2022-09-20T19:31:29;14.40;99.90
8778;DHT22;4425;50.872;4.712;2022-09-20T19:34:00;14.40;99.90
8778;DHT22;4425;50.872;4.712;2022-09-20T19:36:37;14.40;99.90
8778;DHT22;4425;50.872;4.712;2022-09-20T19:39:11;14.50;99.90
8778;DHT22;4425;50.872;4.712;2022-09-20T19:41:47;14.60;99.90
8778;DHT22;4425;50.872;4.712;2022-09-20T19:44:26;14.60;99.90
8778;DHT22;4425;50.872;4.712;2022-09-20T19:47:04;14.70;99.90
8778;DHT22;4425;50.872;4.712;2022-09-20T19:49:57;14.70;99.90
8778;DHT22;4425;50.872;4.712;2022-09-20T19:52:30;14.70;99.90
8778;DHT22;4425;50.872;4.712;2022-09-20T19:55:00;14.70;99.90
8778;DHT22;4425;50.872;4.712;2022-09-20T19:57:33;14.50;99.90
8778;DHT22;4425;50.872;4.712;2022-09-20T20:00:02;14.60;99.90
8778;DHT22;4425;50.872;4.712;2022-09-20T20:02:31;14.60;99.90
8778;DHT22;4425;50.872;4.712;2022-09-20T20:05:02;14.50;99.90
8778;DHT22;4425;50.872;4.712;2022-09-20T20:07:35;14.40;99.90
8778;DHT22;4425;50.872;4.712;2022-09-20T20:10:11;14.20;99.90
8778;DHT22;4425;50.872;4.712;2022-09-20T20:12:48;14.20;99.90
8778;DHT22;4425;50.872;4.712;2022-09-20T20:15:24;14.20;99.90